sensor_id;sensor_type;location;lat;lon;timestamp;P1;P2;P0
24012;PMS7003;12220;50.194;18.948;2023-03-03T00:00:25;63;45;28
24012;PMS7003;12220;50.194;18.948;2023-03-03T00:02:38;52;41;23
24012;PMS7003;12220;50.194;18.948;2023-03-03T00:04:40;46;40;27
24012;PMS7003;12220;50.194;18.948;2023-03-03T00:06:43;54;41;27
24012;PMS7003;12220;50.194;18.948;2023-03-03T00:08:45;53;42;26
24012;PMS7003;12220;50.194;18.948;2023-03-03T00:10:53;55;41;26
24012;PMS7003;12220;50.194;18.948;2023-03-03T00:12:55;53;41;27
24012;PMS7003;12220;50.194;18.948;2023-03-03T00:14:57;55;40;25
24012;PMS7003;12220;50.194;18.948;2023-03-03T00:17:01;46;38;24
24012;PMS7003;12220;50.194;18.948;2023-03-03T00:21:31;48;38;25
24012;PMS7003;12220;50.194;18.948;2023-03-03T00:23:38;47;33;20
24012;PMS7003;12220;50.194;18.948;2023-03-03T00:25:43;46;35;23
24012;PMS7003;12220;50.194;18.948;2023-03-03T00:27:46;51;36;23
24012;PMS7003;12220;50.194;18.948;2023-03-03T00:29:48;53;41;25
24012;PMS7003;12220;50.194;18.948;2023-03-03T00:31:54;53;42;24
24012;PMS7003;12220;50.194;18.948;2023-03-03T00:33:56;49;39;24
24012;PMS7003;12220;50.194;18.948;2023-03-03T00:38:22;51;38;23
24012;PMS7003;12220;50.194;18.948;2023-03-03T00:40:26;38;33;20
24012;PMS7003;12220;50.194;18.948;2023-03-03T00:42:50;43;35;22
24012;PMS7003;12220;50.194;18.948;2023-03-03T00:44:57;55;41;23
24012;PMS7003;12220;50.194;18.948;2023-03-03T00:51:41;51;38;22
24012;PMS7003;12220;50.194;18.948;2023-03-03T00:53:43;51;38;25
24012;PMS7003;12220;50.194;18.948;2023-03-03T00:55:46;46;37;25
24012;PMS7003;12220;50.194;18.948;2023-03-03T00:57:48;52;36;23
24012;PMS7003;12220;50.194;18.948;2023-03-03T00:59:50;50;39;25
24012;PMS7003;12220;50.194;18.948;2023-03-03T01:01:53;52;40;25
24012;PMS7003;12220;50.194;18.948;2023-03-03T01:03:54;45;35;23
24012;PMS7003;12220;50.194;18.948;2023-03-03T01:20:57;32;24;15
24012;PMS7003;12220;50.194;18.948;2023-03-03T01:22:58;41;33;23
24012;PMS7003;12220;50.194;18.948;2023-03-03T01:25:00;40;31;20
24012;PMS7003;12220;50.194;18.948;2023-03-03T01:27:03;46;36;23
24012;PMS7003;12220;50.194;18.948;2023-03-03T01:29:12;53;43;25
24012;PMS7003;12220;50.194;18.948;2023-03-03T01:31:13;54;44;27
24012;PMS7003;12220;50.194;18.948;2023-03-03T01:33:15;51;41;25
24012;PMS7003;12220;50.194;18.948;2023-03-03T01:35:20;46;36;24
24012;PMS7003;12220;50.194;18.948;2023-03-03T01:37:27;56;44;28
24012;PMS7003;12220;50.194;18.948;2023-03-03T01:39:28;54;40;23
24012;PMS7003;12220;50.194;18.948;2023-03-03T01:41:30;46;36;25
24012;PMS7003;12220;50.194;18.948;2023-03-03T01:43:41;50;40;26
24012;PMS7003;12220;50.194;18.948;2023-03-03T01:48:05;51;41;25
24012;PMS7003;12220;50.194;18.948;2023-03-03T01:50:14;47;39;25
24012;PMS7003;12220;50.194;18.948;2023-03-03T01:52:24;52;43;27
24012;PMS7003;12220;50.194;18.948;2023-03-03T01:54:36;48;40;26
24012;PMS7003;12220;50.194;18.948;2023-03-03T01:56:44;53;40;26
24012;PMS7003;12220;50.194;18.948;2023-03-03T02:01:16;51;39;25
24012;PMS7003;12220;50.194;18.948;2023-03-03T02:03:33;55;40;24
24012;PMS7003;12220;50.194;18.948;2023-03-03T02:05:35;50;40;25
24012;PMS7003;12220;50.194;18.948;2023-03-03T02:07:39;45;35;21
24012;PMS7003;12220;50.194;18.948;2023-03-03T02:09:47;50;38;24
24012;PMS7003;12220;50.194;18.948;2023-03-03T02:11:59;49;38;24
24012;PMS7003;12220;50.194;18.948;2023-03-03T02:14:11;51;40;24
24012;PMS7003;12220;50.194;18.948;2023-03-03T02:16:13;52;40;26
24012;PMS7003;12220;50.194;18.948;2023-03-03T02:18:18;46;35;23
24012;PMS7003;12220;50.194;18.948;2023-03-03T02:27:08;50;38;22
24012;PMS7003;12220;50.194;18.948;2023-03-03T02:29:10;53;41;26
24012;PMS7003;12220;50.194;18.948;2023-03-03T02:31:12;50;41;24
24012;PMS7003;12220;50.194;18.948;2023-03-03T02:33:16;51;40;23
24012;PMS7003;12220;50.194;18.948;2023-03-03T02:37:32;58;44;24
24012;PMS7003;12220;50.194;18.948;2023-03-03T02:39:34;52;38;26
24012;PMS7003;12220;50.194;18.948;2023-03-03T02:42:22;53;40;25
24012;PMS7003;12220;50.194;18.948;2023-03-03T02:44:06;48;39;25
24012;PMS7003;12220;50.194;18.948;2023-03-03T02:46:01;53;40;25
24012;PMS7003;12220;50.194;18.948;2023-03-03T02:48:03;56;42;26
24012;PMS7003;12220;50.194;18.948;2023-03-03T02:50:05;47;41;26
24012;PMS7003;12220;50.194;18.948;2023-03-03T02:52:08;55;43;26
24012;PMS7003;12220;50.194;18.948;2023-03-03T02:54:16;51;42;25
24012;PMS7003;12220;50.194;18.948;2023-03-03T02:56:20;56;42;26
24012;PMS7003;12220;50.194;18.948;2023-03-03T02:58:21;60;44;28
24012;PMS7003;12220;50.194;18.948;2023-03-03T03:00:23;52;38;23
24012;PMS7003;12220;50.194;18.948;2023-03-03T03:02:31;56;42;25
24012;PMS7003;12220;50.194;18.948;2023-03-03T03:04:33;55;38;25
24012;PMS7003;12220;50.194;18.948;2023-03-03T03:06:34;52;41;24
24012;PMS7003;12220;50.194;18.948;2023-03-03T03:08:36;52;39;24
24012;PMS7003;12220;50.194;18.948;2023-03-03T03:10:46;48;35;21
24012;PMS7003;12220;50.194;18.948;2023-03-03T03:12:48;58;43;26
24012;PMS7003;12220;50.194;18.948;2023-03-03T03:14:50;49;39;27
24012;PMS7003;12220;50.194;18.948;2023-03-03T03:16:51;50;41;25
24012;PMS7003;12220;50.194;18.948;2023-03-03T03:19:02;56;42;28
24012;PMS7003;12220;50.194;18.948;2023-03-03T03:21:05;51;42;27
24012;PMS7003;12220;50.194;18.948;2023-03-03T03:23:08;47;40;26
24012;PMS7003;12220;50.194;18.948;2023-03-03T03:25:12;50;40;25
24012;PMS7003;12220;50.194;18.948;2023-03-03T03:27:17;56;42;25
24012;PMS7003;12220;50.194;18.948;2023-03-03T03:29:19;55;41;25
24012;PMS7003;12220;50.194;18.948;2023-03-03T03:31:21;53;40;25
24012;PMS7003;12220;50.194;18.948;2023-03-03T03:33:22;47;37;24
24012;PMS7003;12220;50.194;18.948;2023-03-03T03:35:33;54;41;24
24012;PMS7003;12220;50.194;18.948;2023-03-03T03:37:35;48;37;24
24012;PMS7003;12220;50.194;18.948;2023-03-03T03:39:36;53;39;26
24012;PMS7003;12220;50.194;18.948;2023-03-03T03:41:37;49;39;24
24012;PMS7003;12220;50.194;18.948;2023-03-03T03:43:47;50;37;24
24012;PMS7003;12220;50.194;18.948;2023-03-03T03:45:49;49;37;24
24012;PMS7003;12220;50.194;18.948;2023-03-03T03:47:50;46;32;15
24012;PMS7003;12220;50.194;18.948;2023-03-03T03:49:52;52;42;24
24012;PMS7003;12220;50.194;18.948;2023-03-03T03:52:03;54;39;23
24012;PMS7003;12220;50.194;18.948;2023-03-03T03:54:05;44;35;24
24012;PMS7003;12220;50.194;18.948;2023-03-03T03:56:07;49;41;26
24012;PMS7003;12220;50.194;18.948;2023-03-03T03:58:11;48;38;27
24012;PMS7003;12220;50.194;18.948;2023-03-03T04:00:18;50;40;24
24012;PMS7003;12220;50.194;18.948;2023-03-03T04:02:19;55;41;24
24012;PMS7003;12220;50.194;18.948;2023-03-03T04:04:21;45;39;21
24012;PMS7003;12220;50.194;18.948;2023-03-03T04:06:22;51;37;24
24012;PMS7003;12220;50.194;18.948;2023-03-03T04:08:33;51;41;24
24012;PMS7003;12220;50.194;18.948;2023-03-03T04:10:35;53;41;27
24012;PMS7003;12220;50.194;18.948;2023-03-03T04:12:36;57;44;26
24012;PMS7003;12220;50.194;18.948;2023-03-03T04:14:38;55;43;27
24012;PMS7003;12220;50.194;18.948;2023-03-03T04:16:48;55;41;25
24012;PMS7003;12220;50.194;18.948;2023-03-03T04:18:50;54;43;27
24012;PMS7003;12220;50.194;18.948;2023-03-03T04:20:51;56;44;27
24012;PMS7003;12220;50.194;18.948;2023-03-03T04:22:54;52;43;28
24012;PMS7003;12220;50.194;18.948;2023-03-03T04:25:04;53;41;24
24012;PMS7003;12220;50.194;18.948;2023-03-03T04:27:07;50;40;24
24012;PMS7003;12220;50.194;18.948;2023-03-03T04:29:12;50;40;26
24012;PMS7003;12220;50.194;18.948;2023-03-03T04:31:14;60;43;25
24012;PMS7003;12220;50.194;18.948;2023-03-03T04:33:20;52;40;26
24012;PMS7003;12220;50.194;18.948;2023-03-03T04:35:21;54;41;24
24012;PMS7003;12220;50.194;18.948;2023-03-03T04:37:23;53;39;22
24012;PMS7003;12220;50.194;18.948;2023-03-03T04:39:25;51;40;25
24012;PMS7003;12220;50.194;18.948;2023-03-03T04:41:34;60;46;27
24012;PMS7003;12220;50.194;18.948;2023-03-03T04:43:36;52;40;24
24012;PMS7003;12220;50.194;18.948;2023-03-03T04:45:38;53;43;25
24012;PMS7003;12220;50.194;18.948;2023-03-03T04:47:40;48;39;24
24012;PMS7003;12220;50.194;18.948;2023-03-03T04:49:49;57;42;25
24012;PMS7003;12220;50.194;18.948;2023-03-03T04:51:51;46;38;24
24012;PMS7003;12220;50.194;18.948;2023-03-03T04:53:55;50;38;23
24012;PMS7003;12220;50.194;18.948;2023-03-03T04:55:57;50;41;23
24012;PMS7003;12220;50.194;18.948;2023-03-03T04:58:04;51;40;25
24012;PMS7003;12220;50.194;18.948;2023-03-03T05:00:07;50;40;23
24012;PMS7003;12220;50.194;18.948;2023-03-03T05:02:12;48;36;24
24012;PMS7003;12220;50.194;18.948;2023-03-03T05:04:14;48;38;24
24012;PMS7003;12220;50.194;18.948;2023-03-03T05:06:20;45;35;23
24012;PMS7003;12220;50.194;18.948;2023-03-03T05:08:21;44;34;23
24012;PMS7003;12220;50.194;18.948;2023-03-03T05:10:23;46;38;24
24012;PMS7003;12220;50.194;18.948;2023-03-03T05:12:25;40;34;22
24012;PMS7003;12220;50.194;18.948;2023-03-03T05:14:35;52;41;26
24012;PMS7003;12220;50.194;18.948;2023-03-03T05:16:36;47;34;19
24012;PMS7003;12220;50.194;18.948;2023-03-03T05:18:38;51;37;21
24012;PMS7003;12220;50.194;18.948;2023-03-03T05:20:39;46;37;22
24012;PMS7003;12220;50.194;18.948;2023-03-03T05:22:50;48;39;24
24012;PMS7003;12220;50.194;18.948;2023-03-03T05:24:52;48;36;23
24012;PMS7003;12220;50.194;18.948;2023-03-03T05:26:54;43;35;25
24012;PMS7003;12220;50.194;18.948;2023-03-03T05:28:55;45;36;23
24012;PMS7003;12220;50.194;18.948;2023-03-03T05:31:06;41;34;22
24012;PMS7003;12220;50.194;18.948;2023-03-03T05:33:07;43;34;22
24012;PMS7003;12220;50.194;18.948;2023-03-03T05:35:10;46;39;23
24012;PMS7003;12220;50.194;18.948;2023-03-03T05:37:11;51;42;25
24012;PMS7003;12220;50.194;18.948;2023-03-03T05:39:21;60;47;29
24012;PMS7003;12220;50.194;18.948;2023-03-03T05:41:25;60;47;29
24012;PMS7003;12220;50.194;18.948;2023-03-03T05:43:27;73;55;32
24012;PMS7003;12220;50.194;18.948;2023-03-03T05:45:29;68;50;32
24012;PMS7003;12220;50.194;18.948;2023-03-03T05:47:36;69;54;32
24012;PMS7003;12220;50.194;18.948;2023-03-03T05:49:38;72;55;33
24012;PMS7003;12220;50.194;18.948;2023-03-03T05:51:40;64;49;31
24012;PMS7003;12220;50.194;18.948;2023-03-03T05:53:41;64;48;31
24012;PMS7003;12220;50.194;18.948;2023-03-03T05:55:51;62;48;31
24012;PMS7003;12220;50.194;18.948;2023-03-03T05:57:53;63;44;27
24012;PMS7003;12220;50.194;18.948;2023-03-03T05:59:55;63;48;28
24012;PMS7003;12220;50.194;18.948;2023-03-03T06:01:58;55;41;23
24012;PMS7003;12220;50.194;18.948;2023-03-03T06:04:07;57;47;28
24012;PMS7003;12220;50.194;18.948;2023-03-03T06:06:09;63;49;29
24012;PMS7003;12220;50.194;18.948;2023-03-03T06:08:13;64;48;28
24012;PMS7003;12220;50.194;18.948;2023-03-03T06:10:18;59;47;29
24012;PMS7003;12220;50.194;18.948;2023-03-03T06:12:22;62;48;29
24012;PMS7003;12220;50.194;18.948;2023-03-03T06:14:26;56;44;29
24012;PMS7003;12220;50.194;18.948;2023-03-03T06:16:28;60;47;30
24012;PMS7003;12220;50.194;18.948;2023-03-03T06:18:29;67;51;30
24012;PMS7003;12220;50.194;18.948;2023-03-03T06:20:37;70;53;31
24012;PMS7003;12220;50.194;18.948;2023-03-03T06:22:39;62;48;30
24012;PMS7003;12220;50.194;18.948;2023-03-03T06:24:41;71;55;34
24012;PMS7003;12220;50.194;18.948;2023-03-03T06:26:42;69;55;33
24012;PMS7003;12220;50.194;18.948;2023-03-03T06:28:53;74;56;32
24012;PMS7003;12220;50.194;18.948;2023-03-03T06:30:55;78;62;35
24012;PMS7003;12220;50.194;18.948;2023-03-03T06:32:58;79;63;35
24012;PMS7003;12220;50.194;18.948;2023-03-03T06:34:59;90;75;40
24012;PMS7003;12220;50.194;18.948;2023-03-03T06:37:08;80;67;37
24012;PMS7003;12220;50.194;18.948;2023-03-03T06:39:10;85;70;37
24012;PMS7003;12220;50.194;18.948;2023-03-03T06:41:12;80;60;35
24012;PMS7003;12220;50.194;18.948;2023-03-03T06:43:13;72;58;40
24012;PMS7003;12220;50.194;18.948;2023-03-03T06:45:23;78;62;35
24012;PMS7003;12220;50.194;18.948;2023-03-03T06:47:25;87;71;41
24012;PMS7003;12220;50.194;18.948;2023-03-03T06:49:27;85;71;37
24012;PMS7003;12220;50.194;18.948;2023-03-03T06:51:42;87;73;44
24012;PMS7003;12220;50.194;18.948;2023-03-03T06:54:06;79;63;41
24012;PMS7003;12220;50.194;18.948;2023-03-03T06:56:14;81;68;41
24012;PMS7003;12220;50.194;18.948;2023-03-03T06:58:22;78;69;38
24012;PMS7003;12220;50.194;18.948;2023-03-03T07:00:29;83;70;41
24012;PMS7003;12220;50.194;18.948;2023-03-03T07:02:30;103;89;46
24012;PMS7003;12220;50.194;18.948;2023-03-03T07:04:32;108;85;42
24012;PMS7003;12220;50.194;18.948;2023-03-03T07:06:37;105;82;46
24012;PMS7003;12220;50.194;18.948;2023-03-03T07:08:39;92;79;40
24012;PMS7003;12220;50.194;18.948;2023-03-03T07:10:41;85;74;40
24012;PMS7003;12220;50.194;18.948;2023-03-03T07:12:43;95;68;37
24012;PMS7003;12220;50.194;18.948;2023-03-03T07:17:16;82;62;35
24012;PMS7003;12220;50.194;18.948;2023-03-03T07:21:35;73;55;34
24012;PMS7003;12220;50.194;18.948;2023-03-03T07:24:00;79;57;35
24012;PMS7003;12220;50.194;18.948;2023-03-03T07:26:11;76;55;32
24012;PMS7003;12220;50.194;18.948;2023-03-03T07:30:27;61;48;28
24012;PMS7003;12220;50.194;18.948;2023-03-03T07:34:50;60;47;28
24012;PMS7003;12220;50.194;18.948;2023-03-03T07:36:51;60;46;28
24012;PMS7003;12220;50.194;18.948;2023-03-03T07:38:59;67;51;29
24012;PMS7003;12220;50.194;18.948;2023-03-03T07:41:14;65;49;29
24012;PMS7003;12220;50.194;18.948;2023-03-03T07:43:30;66;51;29
24012;PMS7003;12220;50.194;18.948;2023-03-03T07:45:35;72;50;30
24012;PMS7003;12220;50.194;18.948;2023-03-03T07:47:37;60;47;29
24012;PMS7003;12220;50.194;18.948;2023-03-03T07:49:39;66;50;30
24012;PMS7003;12220;50.194;18.948;2023-03-03T07:51:45;62;50;30
24012;PMS7003;12220;50.194;18.948;2023-03-03T07:53:48;68;49;29
24012;PMS7003;12220;50.194;18.948;2023-03-03T07:55:51;65;49;28
24012;PMS7003;12220;50.194;18.948;2023-03-03T07:57:52;68;51;29
24012;PMS7003;12220;50.194;18.948;2023-03-03T08:00:07;63;46;28
24012;PMS7003;12220;50.194;18.948;2023-03-03T08:04:45;68;50;28
24012;PMS7003;12220;50.194;18.948;2023-03-03T08:06:55;67;51;31
24012;PMS7003;12220;50.194;18.948;2023-03-03T08:11:11;71;52;28
24012;PMS7003;12220;50.194;18.948;2023-03-03T08:13:20;66;50;29
24012;PMS7003;12220;50.194;18.948;2023-03-03T08:15:30;68;50;29
24012;PMS7003;12220;50.194;18.948;2023-03-03T08:17:47;65;46;28
24012;PMS7003;12220;50.194;18.948;2023-03-03T08:19:50;60;47;26
24012;PMS7003;12220;50.194;18.948;2023-03-03T08:21:55;62;45;24
24012;PMS7003;12220;50.194;18.948;2023-03-03T08:24:04;60;47;28
24012;PMS7003;12220;50.194;18.948;2023-03-03T08:26:06;61;44;24
24012;PMS7003;12220;50.194;18.948;2023-03-03T08:28:10;55;41;23
24012;PMS7003;12220;50.194;18.948;2023-03-03T08:30:14;57;42;24
24012;PMS7003;12220;50.194;18.948;2023-03-03T08:32:16;64;45;25
24012;PMS7003;12220;50.194;18.948;2023-03-03T08:34:19;60;47;25
24012;PMS7003;12220;50.194;18.948;2023-03-03T08:36:20;60;46;25
24012;PMS7003;12220;50.194;18.948;2023-03-03T08:38:22;60;44;25
24012;PMS7003;12220;50.194;18.948;2023-03-03T08:40:24;58;42;26
24012;PMS7003;12220;50.194;18.948;2023-03-03T08:42:34;51;37;22
24012;PMS7003;12220;50.194;18.948;2023-03-03T08:44:36;52;41;22
24012;PMS7003;12220;50.194;18.948;2023-03-03T08:46:37;63;41;23
24012;PMS7003;12220;50.194;18.948;2023-03-03T08:48:39;47;38;23
24012;PMS7003;12220;50.194;18.948;2023-03-03T08:50:49;56;39;22
24012;PMS7003;12220;50.194;18.948;2023-03-03T08:52:51;53;39;22
24012;PMS7003;12220;50.194;18.948;2023-03-03T08:54:52;58;42;24
24012;PMS7003;12220;50.194;18.948;2023-03-03T08:56:54;62;45;24
24012;PMS7003;12220;50.194;18.948;2023-03-03T08:59:05;54;44;24
24012;PMS7003;12220;50.194;18.948;2023-03-03T09:01:06;51;41;22
24012;PMS7003;12220;50.194;18.948;2023-03-03T09:03:07;55;43;23
24012;PMS7003;12220;50.194;18.948;2023-03-03T09:05:10;56;42;23
24012;PMS7003;12220;50.194;18.948;2023-03-03T09:07:20;57;42;23
24012;PMS7003;12220;50.194;18.948;2023-03-03T09:09:21;52;39;24
24012;PMS7003;12220;50.194;18.948;2023-03-03T09:11:24;45;39;23
24012;PMS7003;12220;50.194;18.948;2023-03-03T09:13:29;52;41;24
24012;PMS7003;12220;50.194;18.948;2023-03-03T09:15:37;53;41;22
24012;PMS7003;12220;50.194;18.948;2023-03-03T09:17:39;38;34;20
24012;PMS7003;12220;50.194;18.948;2023-03-03T09:19:41;58;41;21
24012;PMS7003;12220;50.194;18.948;2023-03-03T09:21:44;53;40;22
24012;PMS7003;12220;50.194;18.948;2023-03-03T09:23:54;53;33;20
24012;PMS7003;12220;50.194;18.948;2023-03-03T09:30:29;50;37;19
24012;PMS7003;12220;50.194;18.948;2023-03-03T09:32:39;53;36;23
24012;PMS7003;12220;50.194;18.948;2023-03-03T09:34:44;42;32;19
24012;PMS7003;12220;50.194;18.948;2023-03-03T09:36:47;43;36;20
24012;PMS7003;12220;50.194;18.948;2023-03-03T09:38:49;50;39;21
24012;PMS7003;12220;50.194;18.948;2023-03-03T09:43:08;48;35;18
24012;PMS7003;12220;50.194;18.948;2023-03-03T09:52:30;44;35;19
24012;PMS7003;12220;50.194;18.948;2023-03-03T09:54:46;50;39;20
24012;PMS7003;12220;50.194;18.948;2023-03-03T09:59:26;52;37;20
24012;PMS7003;12220;50.194;18.948;2023-03-03T10:01:55;39;33;19
24012;PMS7003;12220;50.194;18.948;2023-03-03T10:11:16;43;36;19
24012;PMS7003;12220;50.194;18.948;2023-03-03T10:13:40;48;34;19
24012;PMS7003;12220;50.194;18.948;2023-03-03T10:16:15;55;36;22
24012;PMS7003;12220;50.194;18.948;2023-03-03T10:23:03;39;26;15
24012;PMS7003;12220;50.194;18.948;2023-03-03T10:25:26;34;28;15
24012;PMS7003;12220;50.194;18.948;2023-03-03T10:27:46;46;31;19
24012;PMS7003;12220;50.194;18.948;2023-03-03T10:30:10;51;37;19
24012;PMS7003;12220;50.194;18.948;2023-03-03T10:32:30;46;35;20
24012;PMS7003;12220;50.194;18.948;2023-03-03T10:49:01;23;22;15
24012;PMS7003;12220;50.194;18.948;2023-03-03T10:51:26;32;24;14
24012;PMS7003;12220;50.194;18.948;2023-03-03T10:53:43;33;17;12
24012;PMS7003;12220;50.194;18.948;2023-03-03T11:00:45;45;32;20
24012;PMS7003;12220;50.194;18.948;2023-03-03T11:07:55;39;31;18
24012;PMS7003;12220;50.194;18.948;2023-03-03T11:12:36;28;24;14
24012;PMS7003;12220;50.194;18.948;2023-03-03T11:15:00;44;31;16
24012;PMS7003;12220;50.194;18.948;2023-03-03T11:19:46;42;27;16
24012;PMS7003;12220;50.194;18.948;2023-03-03T11:22:04;24;19;11
24012;PMS7003;12220;50.194;18.948;2023-03-03T11:24:26;25;19;13
24012;PMS7003;12220;50.194;18.948;2023-03-03T11:33:48;24;21;13
24012;PMS7003;12220;50.194;18.948;2023-03-03T11:36:09;33;24;16
24012;PMS7003;12220;50.194;18.948;2023-03-03T11:38:20;44;26;15
24012;PMS7003;12220;50.194;18.948;2023-03-03T11:40:33;35;28;14
24012;PMS7003;12220;50.194;18.948;2023-03-03T11:45:05;22;19;11
24012;PMS7003;12220;50.194;18.948;2023-03-03T11:49:32;27;24;13
24012;PMS7003;12220;50.194;18.948;2023-03-03T11:51:46;40;28;16
24012;PMS7003;12220;50.194;18.948;2023-03-03T11:54:47;20;19;11
24012;PMS7003;12220;50.194;18.948;2023-03-03T11:58:50;41;32;19
24012;PMS7003;12220;50.194;18.948;2023-03-03T12:03:32;43;25;14
24012;PMS7003;12220;50.194;18.948;2023-03-03T12:05:54;29;23;11
24012;PMS7003;12220;50.194;18.948;2023-03-03T12:10:35;37;27;16
24012;PMS7003;12220;50.194;18.948;2023-03-03T12:22:26;40;32;17
24012;PMS7003;12220;50.194;18.948;2023-03-03T12:27:13;34;27;13
24012;PMS7003;12220;50.194;18.948;2023-03-03T12:43:37;27;19;12
24012;PMS7003;12220;50.194;18.948;2023-03-03T12:48:20;36;30;16
24012;PMS7003;12220;50.194;18.948;2023-03-03T12:55:23;37;26;13
24012;PMS7003;12220;50.194;18.948;2023-03-03T13:04:48;32;28;15
24012;PMS7003;12220;50.194;18.948;2023-03-03T13:14:15;24;22;12
24012;PMS7003;12220;50.194;18.948;2023-03-03T13:16:34;22;19;13
24012;PMS7003;12220;50.194;18.948;2023-03-03T13:26:02;24;21;13
24012;PMS7003;12220;50.194;18.948;2023-03-03T13:30:44;25;23;13
24012;PMS7003;12220;50.194;18.948;2023-03-03T13:37:52;45;31;15
24012;PMS7003;12220;50.194;18.948;2023-03-03T13:39:58;40;35;20
24012;PMS7003;12220;50.194;18.948;2023-03-03T13:44:24;27;23;13
24012;PMS7003;12220;50.194;18.948;2023-03-03T13:55:42;41;36;20
24012;PMS7003;12220;50.194;18.948;2023-03-03T13:57:50;44;35;19
24012;PMS7003;12220;50.194;18.948;2023-03-03T14:02:19;39;29;18
24012;PMS7003;12220;50.194;18.948;2023-03-03T14:06:42;34;30;15
24012;PMS7003;12220;50.194;18.948;2023-03-03T14:11:13;32;27;13
24012;PMS7003;12220;50.194;18.948;2023-03-03T14:20:37;37;27;16
24012;PMS7003;12220;50.194;18.948;2023-03-03T14:22:45;34;27;15
24012;PMS7003;12220;50.194;18.948;2023-03-03T14:27:13;35;31;17
24012;PMS7003;12220;50.194;18.948;2023-03-03T14:33:45;36;26;15
24012;PMS7003;12220;50.194;18.948;2023-03-03T14:36:05;31;24;12
24012;PMS7003;12220;50.194;18.948;2023-03-03T14:38:16;33;28;12
24012;PMS7003;12220;50.194;18.948;2023-03-03T14:40:20;33;27;13
24012;PMS7003;12220;50.194;18.948;2023-03-03T14:44:49;35;30;19
24012;PMS7003;12220;50.194;18.948;2023-03-03T14:49:13;38;30;18
24012;PMS7003;12220;50.194;18.948;2023-03-03T14:51:37;43;33;16
24012;PMS7003;12220;50.194;18.948;2023-03-03T14:53:50;41;29;17
24012;PMS7003;12220;50.194;18.948;2023-03-03T14:55:52;40;32;15
24012;PMS7003;12220;50.194;18.948;2023-03-03T14:57:56;33;27;13
24012;PMS7003;12220;50.194;18.948;2023-03-03T15:00:00;36;28;17
24012;PMS7003;12220;50.194;18.948;2023-03-03T15:04:27;35;21;15
24012;PMS7003;12220;50.194;18.948;2023-03-03T15:08:46;32;23;14
24012;PMS7003;12220;50.194;18.948;2023-03-03T15:10:47;34;28;14
24012;PMS7003;12220;50.194;18.948;2023-03-03T15:12:49;42;34;15
24012;PMS7003;12220;50.194;18.948;2023-03-03T15:14:52;36;27;16
24012;PMS7003;12220;50.194;18.948;2023-03-03T15:17:12;32;29;16
24012;PMS7003;12220;50.194;18.948;2023-03-03T15:21:24;32;28;15
24012;PMS7003;12220;50.194;18.948;2023-03-03T15:30:31;26;19;13
24012;PMS7003;12220;50.194;18.948;2023-03-03T15:32:45;20;16;10
24012;PMS7003;12220;50.194;18.948;2023-03-03T15:35:02;27;20;10
24012;PMS7003;12220;50.194;18.948;2023-03-03T15:41:37;41;31;16
24012;PMS7003;12220;50.194;18.948;2023-03-03T15:53:14;37;28;15
24012;PMS7003;12220;50.194;18.948;2023-03-03T16:07:22;24;23;13
24012;PMS7003;12220;50.194;18.948;2023-03-03T16:09:45;35;30;15
24012;PMS7003;12220;50.194;18.948;2023-03-03T16:16:45;31;26;15
24012;PMS7003;12220;50.194;18.948;2023-03-03T16:23:47;42;30;14
24012;PMS7003;12220;50.194;18.948;2023-03-03T16:28:09;29;24;13
24012;PMS7003;12220;50.194;18.948;2023-03-03T16:44:03;32;24;12
24012;PMS7003;12220;50.194;18.948;2023-03-03T16:48:45;35;27;16
24012;PMS7003;12220;50.194;18.948;2023-03-03T16:58:17;43;35;19
24012;PMS7003;12220;50.194;18.948;2023-03-03T17:00:34;35;23;7
24012;PMS7003;12220;50.194;18.948;2023-03-03T17:02:47;44;30;18
24012;PMS7003;12220;50.194;18.948;2023-03-03T17:05:00;37;27;14
24012;PMS7003;12220;50.194;18.948;2023-03-03T17:20:55;46;34;17
24012;PMS7003;12220;50.194;18.948;2023-03-03T17:28:02;36;27;15
24012;PMS7003;12220;50.194;18.948;2023-03-03T17:39:46;49;35;19
24012;PMS7003;12220;50.194;18.948;2023-03-03T17:58:38;39;32;18
24012;PMS7003;12220;50.194;18.948;2023-03-03T18:05:38;48;34;19
24012;PMS7003;12220;50.194;18.948;2023-03-03T18:08:05;38;31;19
24012;PMS7003;12220;50.194;18.948;2023-03-03T18:19:55;33;20;14
24012;PMS7003;12220;50.194;18.948;2023-03-03T18:22:06;29;26;10
24012;PMS7003;12220;50.194;18.948;2023-03-03T18:28:42;28;23;11
24012;PMS7003;12220;50.194;18.948;2023-03-03T18:33:10;41;34;20
24012;PMS7003;12220;50.194;18.948;2023-03-03T18:37:38;35;28;18
24012;PMS7003;12220;50.194;18.948;2023-03-03T18:39:45;36;31;15
24012;PMS7003;12220;50.194;18.948;2023-03-03T18:48:46;42;34;18
24012;PMS7003;12220;50.194;18.948;2023-03-03T18:50:57;27;23;14
24012;PMS7003;12220;50.194;18.948;2023-03-03T18:53:18;28;26;15
24012;PMS7003;12220;50.194;18.948;2023-03-03T18:57:24;35;30;17
24012;PMS7003;12220;50.194;18.948;2023-03-03T19:01:44;28;23;14
24012;PMS7003;12220;50.194;18.948;2023-03-03T19:03:54;30;26;15
24012;PMS7003;12220;50.194;18.948;2023-03-03T19:06:02;38;27;17
24012;PMS7003;12220;50.194;18.948;2023-03-03T19:14:49;43;26;15
24012;PMS7003;12220;50.194;18.948;2023-03-03T19:16:51;27;24;15
24012;PMS7003;12220;50.194;18.948;2023-03-03T19:18:58;27;24;14
24012;PMS7003;12220;50.194;18.948;2023-03-03T19:21:29;26;23;14
24012;PMS7003;12220;50.194;18.948;2023-03-03T19:23:19;35;27;16
24012;PMS7003;12220;50.194;18.948;2023-03-03T19:25:27;23;18;13
24012;PMS7003;12220;50.194;18.948;2023-03-03T19:27:36;39;28;19
24012;PMS7003;12220;50.194;18.948;2023-03-03T19:29:51;41;26;16
24012;PMS7003;12220;50.194;18.948;2023-03-03T19:34:11;34;30;16
24012;PMS7003;12220;50.194;18.948;2023-03-03T19:38:48;24;23;14
24012;PMS7003;12220;50.194;18.948;2023-03-03T19:41:02;29;25;12
24012;PMS7003;12220;50.194;18.948;2023-03-03T19:52:45;40;31;17
24012;PMS7003;12220;50.194;18.948;2023-03-03T19:59:49;42;32;17
24012;PMS7003;12220;50.194;18.948;2023-03-03T20:04:30;57;37;22
24012;PMS7003;12220;50.194;18.948;2023-03-03T20:13:59;56;41;22
24012;PMS7003;12220;50.194;18.948;2023-03-03T20:23:20;52;36;19
24012;PMS7003;12220;50.194;18.948;2023-03-03T20:39:10;46;34;20
24012;PMS7003;12220;50.194;18.948;2023-03-03T20:57:47;39;32;18
24012;PMS7003;12220;50.194;18.948;2023-03-03T21:09:35;39;32;16